Pagina principale
METAR-TAF:

METAR-TAF

Aeroporti :

Polokwane, Sudafrica

latitudine: 23-50-43S, longitudine: 29-27-31E, altezza: 1242 m

Osservazione

Il bollettino è stato emesso 46 minuti fa, alle 20:00 UTC
Vento calmo
Temperature 12°C
Umidità 47%
Pressione 1027 hPa

METAR: FAPP 222000Z AUTO 00000KT //// // ////// 12/01 Q1027

Ora: 22:46 (20:46 UTC)

Previsione

Il bollettino è stato emesso 11 ore e 46 minuti fa, alle 09:00 UTC
Previsione valida dal 22 alle 10 UTC al 22 alle 18 UTC
Vento 5 kt da sud
Visibilità 10 km o più
nessuna nube inferiore a 1500 m e nessun cumulonembo

TAF: FAPP 220900Z 2210/2218 19005KT CAVOK TX23/2213Z TN13/2218Z

Osservazioni e previsioni meteorologiche di più di 4000 aeroporti (messaggi METAR e TAF).

Le stazioni disponibili sono rappresentate dai dischi gialli e rossi sulla carta.

Puntare il mouse per vedere il nome della stazione.

Clicca sopra per visualizzare le osservazioni e previsioni meteorologiche.

Per cambiare la mappa : fare clic sui pulsanti verdi con una croce nera per ingrandire, il pulsante verde con un trattino per diminuire, o sulla freccia verde per le mappe adiacenti.


METAR-TAF: